<?xml version="1.0" encoding="UTF-8" standalone="no" ?>
<gpx xmlns="http://www.topografix.com/GPX/1/1" xmlns:xsi="http://www.w3.org/2001/XMLSchema-instance" xsi:schemaLocation="http://www.topografix.com/GPX/1/1 http://www.topografix.com/GPX/1/1/gpx.xsd" version="1.1" creator="VisuGPX - https://www.visugpx.com">
  <metadata>
    <name>Landrecies - Catillon</name>
    <desc><![CDATA[Je vais retrouver Papa à Catillon]]></desc>
  </metadata>
  <trk>
    <name><![CDATA[LAN CAT]]></name>
    <trkseg>
      <trkpt lat="50.12494" lon="3.6783">
        <ele>138.09</ele>
        <time>2015-07-18T05:30:29Z</time>
      </trkpt>
      <trkpt lat="50.12509" lon="3.67838">
        <ele>138.57</ele>
        <time>2015-07-18T05:30:44Z</time>
      </trkpt>
      <trkpt lat="50.12514" lon="3.67846">
        <ele>138.57</ele>
        <time>2015-07-18T05:30:49Z</time>
      </trkpt>
      <trkpt lat="50.12521" lon="3.67853">
        <ele>138.57</ele>
        <time>2015-07-18T05:30:52Z</time>
      </trkpt>
      <trkpt lat="50.12539" lon="3.67875">
        <ele>138.57</ele>
        <time>2015-07-18T05:30:58Z</time>
      </trkpt>
      <trkpt lat="50.12558" lon="3.67889">
        <ele>138.57</ele>
        <time>2015-07-18T05:31:03Z</time>
      </trkpt>
      <trkpt lat="50.12562" lon="3.67893">
        <ele>138.57</ele>
        <time>2015-07-18T05:31:04Z</time>
      </trkpt>
      <trkpt lat="50.12609" lon="3.67967">
        <ele>138.57</ele>
        <time>2015-07-18T05:31:18Z</time>
      </trkpt>
      <trkpt lat="50.12612" lon="3.67973">
        <ele>138.57</ele>
        <time>2015-07-18T05:31:19Z</time>
      </trkpt>
      <trkpt lat="50.12615" lon="3.67978">
        <ele>138.57</ele>
        <time>2015-07-18T05:31:20Z</time>
      </trkpt>
      <trkpt lat="50.12659" lon="3.68076">
        <ele>138.57</ele>
        <time>2015-07-18T05:31:35Z</time>
      </trkpt>
      <trkpt lat="50.12687" lon="3.68136">
        <ele>138.57</ele>
        <time>2015-07-18T05:31:45Z</time>
      </trkpt>
      <trkpt lat="50.12721" lon="3.68205">
        <ele>138.57</ele>
        <time>2015-07-18T05:31:57Z</time>
      </trkpt>
      <trkpt lat="50.12766" lon="3.68341">
        <ele>139.05</ele>
        <time>2015-07-18T05:32:18Z</time>
      </trkpt>
      <trkpt lat="50.12796" lon="3.68432">
        <ele>140.01</ele>
        <time>2015-07-18T05:32:32Z</time>
      </trkpt>
      <trkpt lat="50.12795" lon="3.68439">
        <ele>140.01</ele>
        <time>2015-07-18T05:32:33Z</time>
      </trkpt>
      <trkpt lat="50.12793" lon="3.68445">
        <ele>140.01</ele>
        <time>2015-07-18T05:32:34Z</time>
      </trkpt>
      <trkpt lat="50.12789" lon="3.68449">
        <ele>140.01</ele>
        <time>2015-07-18T05:32:35Z</time>
      </trkpt>
      <trkpt lat="50.12785" lon="3.68453">
        <ele>140.01</ele>
        <time>2015-07-18T05:32:36Z</time>
      </trkpt>
      <trkpt lat="50.12748" lon="3.68485">
        <ele>139.05</ele>
        <time>2015-07-18T05:32:44Z</time>
      </trkpt>
      <trkpt lat="50.12725" lon="3.68508">
        <ele>138.57</ele>
        <time>2015-07-18T05:32:49Z</time>
      </trkpt>
      <trkpt lat="50.1272" lon="3.68514">
        <ele>138.57</ele>
        <time>2015-07-18T05:32:50Z</time>
      </trkpt>
      <trkpt lat="50.12658" lon="3.68629">
        <ele>137.61</ele>
        <time>2015-07-18T05:33:07Z</time>
      </trkpt>
      <trkpt lat="50.12634" lon="3.68673">
        <ele>137.61</ele>
        <time>2015-07-18T05:33:15Z</time>
      </trkpt>
      <trkpt lat="50.12629" lon="3.68674">
        <ele>137.61</ele>
        <time>2015-07-18T05:33:16Z</time>
      </trkpt>
      <trkpt lat="50.12625" lon="3.68671">
        <ele>137.61</ele>
        <time>2015-07-18T05:33:17Z</time>
      </trkpt>
      <trkpt lat="50.12621" lon="3.68667">
        <ele>137.61</ele>
        <time>2015-07-18T05:33:18Z</time>
      </trkpt>
      <trkpt lat="50.12618" lon="3.68663">
        <ele>137.61</ele>
        <time>2015-07-18T05:33:19Z</time>
      </trkpt>
      <trkpt lat="50.12615" lon="3.68659">
        <ele>137.61</ele>
        <time>2015-07-18T05:33:20Z</time>
      </trkpt>
      <trkpt lat="50.12612" lon="3.68653">
        <ele>137.61</ele>
        <time>2015-07-18T05:33:21Z</time>
      </trkpt>
      <trkpt lat="50.12608" lon="3.68647">
        <ele>137.61</ele>
        <time>2015-07-18T05:33:22Z</time>
      </trkpt>
      <trkpt lat="50.12604" lon="3.68642">
        <ele>137.61</ele>
        <time>2015-07-18T05:33:23Z</time>
      </trkpt>
      <trkpt lat="50.1257" lon="3.68597">
        <ele>137.61</ele>
        <time>2015-07-18T05:33:32Z</time>
      </trkpt>
      <trkpt lat="50.12566" lon="3.68593">
        <ele>137.61</ele>
        <time>2015-07-18T05:33:33Z</time>
      </trkpt>
      <trkpt lat="50.125" lon="3.68505">
        <ele>137.61</ele>
        <time>2015-07-18T05:33:51Z</time>
      </trkpt>
      <trkpt lat="50.12427" lon="3.68403">
        <ele>137.61</ele>
        <time>2015-07-18T05:34:10Z</time>
      </trkpt>
      <trkpt lat="50.12364" lon="3.68316">
        <ele>137.61</ele>
        <time>2015-07-18T05:34:27Z</time>
      </trkpt>
      <trkpt lat="50.12339" lon="3.68281">
        <ele>137.61</ele>
        <time>2015-07-18T05:34:34Z</time>
      </trkpt>
      <trkpt lat="50.12335" lon="3.68276">
        <ele>137.61</ele>
        <time>2015-07-18T05:34:35Z</time>
      </trkpt>
      <trkpt lat="50.1228" lon="3.68201">
        <ele>137.61</ele>
        <time>2015-07-18T05:34:51Z</time>
      </trkpt>
      <trkpt lat="50.12208" lon="3.68104">
        <ele>137.61</ele>
        <time>2015-07-18T05:35:10Z</time>
      </trkpt>
      <trkpt lat="50.12168" lon="3.68049">
        <ele>137.61</ele>
        <time>2015-07-18T05:35:21Z</time>
      </trkpt>
      <trkpt lat="50.1212" lon="3.67984">
        <ele>137.61</ele>
        <time>2015-07-18T05:35:35Z</time>
      </trkpt>
      <trkpt lat="50.12049" lon="3.67891">
        <ele>137.61</ele>
        <time>2015-07-18T05:35:54Z</time>
      </trkpt>
      <trkpt lat="50.12046" lon="3.67886">
        <ele>137.61</ele>
        <time>2015-07-18T05:35:55Z</time>
      </trkpt>
      <trkpt lat="50.12042" lon="3.6788">
        <ele>137.61</ele>
        <time>2015-07-18T05:35:56Z</time>
      </trkpt>
      <trkpt lat="50.12038" lon="3.67875">
        <ele>137.61</ele>
        <time>2015-07-18T05:35:57Z</time>
      </trkpt>
      <trkpt lat="50.12034" lon="3.6787">
        <ele>137.61</ele>
        <time>2015-07-18T05:35:58Z</time>
      </trkpt>
      <trkpt lat="50.1203" lon="3.67865">
        <ele>137.61</ele>
        <time>2015-07-18T05:35:59Z</time>
      </trkpt>
      <trkpt lat="50.12006" lon="3.6783">
        <ele>137.61</ele>
        <time>2015-07-18T05:36:06Z</time>
      </trkpt>
      <trkpt lat="50.12002" lon="3.67825">
        <ele>137.61</ele>
        <time>2015-07-18T05:36:07Z</time>
      </trkpt>
      <trkpt lat="50.11948" lon="3.67753">
        <ele>137.61</ele>
        <time>2015-07-18T05:36:22Z</time>
      </trkpt>
      <trkpt lat="50.11941" lon="3.67742">
        <ele>137.61</ele>
        <time>2015-07-18T05:36:24Z</time>
      </trkpt>
      <trkpt lat="50.1188" lon="3.67662">
        <ele>137.61</ele>
        <time>2015-07-18T05:36:40Z</time>
      </trkpt>
      <trkpt lat="50.11804" lon="3.6756">
        <ele>137.61</ele>
        <time>2015-07-18T05:37:00Z</time>
      </trkpt>
      <trkpt lat="50.11727" lon="3.67456">
        <ele>137.13</ele>
        <time>2015-07-18T05:37:22Z</time>
      </trkpt>
      <trkpt lat="50.11653" lon="3.67354">
        <ele>137.13</ele>
        <time>2015-07-18T05:37:44Z</time>
      </trkpt>
      <trkpt lat="50.1159" lon="3.67268">
        <ele>137.13</ele>
        <time>2015-07-18T05:38:02Z</time>
      </trkpt>
      <trkpt lat="50.11551" lon="3.67215">
        <ele>137.13</ele>
        <time>2015-07-18T05:38:13Z</time>
      </trkpt>
      <trkpt lat="50.11547" lon="3.67211">
        <ele>137.13</ele>
        <time>2015-07-18T05:38:14Z</time>
      </trkpt>
      <trkpt lat="50.11484" lon="3.67123">
        <ele>137.13</ele>
        <time>2015-07-18T05:38:32Z</time>
      </trkpt>
      <trkpt lat="50.11415" lon="3.67028">
        <ele>137.13</ele>
        <time>2015-07-18T05:38:52Z</time>
      </trkpt>
      <trkpt lat="50.11354" lon="3.66945">
        <ele>137.13</ele>
        <time>2015-07-18T05:39:10Z</time>
      </trkpt>
      <trkpt lat="50.11296" lon="3.66865">
        <ele>137.13</ele>
        <time>2015-07-18T05:39:28Z</time>
      </trkpt>
      <trkpt lat="50.11251" lon="3.66773">
        <ele>137.13</ele>
        <time>2015-07-18T05:39:46Z</time>
      </trkpt>
      <trkpt lat="50.11206" lon="3.66661">
        <ele>137.13</ele>
        <time>2015-07-18T05:40:06Z</time>
      </trkpt>
      <trkpt lat="50.11175" lon="3.6658">
        <ele>137.13</ele>
        <time>2015-07-18T05:40:23Z</time>
      </trkpt>
      <trkpt lat="50.1117" lon="3.66569">
        <ele>137.13</ele>
        <time>2015-07-18T05:40:33Z</time>
      </trkpt>
      <trkpt lat="50.11147" lon="3.66513">
        <ele>137.13</ele>
        <time>2015-07-18T05:40:43Z</time>
      </trkpt>
      <trkpt lat="50.11099" lon="3.66392">
        <ele>137.13</ele>
        <time>2015-07-18T05:40:58Z</time>
      </trkpt>
      <trkpt lat="50.11082" lon="3.66337">
        <ele>137.13</ele>
        <time>2015-07-18T05:41:05Z</time>
      </trkpt>
      <trkpt lat="50.11081" lon="3.66217">
        <ele>137.13</ele>
        <time>2015-07-18T05:41:19Z</time>
      </trkpt>
      <trkpt lat="50.11119" lon="3.66117">
        <ele>136.64</ele>
        <time>2015-07-18T05:41:34Z</time>
      </trkpt>
      <trkpt lat="50.11164" lon="3.66026">
        <ele>136.64</ele>
        <time>2015-07-18T05:41:50Z</time>
      </trkpt>
      <trkpt lat="50.11218" lon="3.65913">
        <ele>136.64</ele>
        <time>2015-07-18T05:42:09Z</time>
      </trkpt>
      <trkpt lat="50.11282" lon="3.65778">
        <ele>136.64</ele>
        <time>2015-07-18T05:42:31Z</time>
      </trkpt>
      <trkpt lat="50.11349" lon="3.65641">
        <ele>136.64</ele>
        <time>2015-07-18T05:42:53Z</time>
      </trkpt>
      <trkpt lat="50.11401" lon="3.6553">
        <ele>136.64</ele>
        <time>2015-07-18T05:43:09Z</time>
      </trkpt>
      <trkpt lat="50.1142" lon="3.65411">
        <ele>136.64</ele>
        <time>2015-07-18T05:43:23Z</time>
      </trkpt>
      <trkpt lat="50.11393" lon="3.65285">
        <ele>136.64</ele>
        <time>2015-07-18T05:43:38Z</time>
      </trkpt>
      <trkpt lat="50.11341" lon="3.65181">
        <ele>136.64</ele>
        <time>2015-07-18T05:43:53Z</time>
      </trkpt>
      <trkpt lat="50.11272" lon="3.65068">
        <ele>136.64</ele>
        <time>2015-07-18T05:44:09Z</time>
      </trkpt>
      <trkpt lat="50.11185" lon="3.64927">
        <ele>136.64</ele>
        <time>2015-07-18T05:44:29Z</time>
      </trkpt>
      <trkpt lat="50.11115" lon="3.64814">
        <ele>136.64</ele>
        <time>2015-07-18T05:44:46Z</time>
      </trkpt>
      <trkpt lat="50.11052" lon="3.64709">
        <ele>136.64</ele>
        <time>2015-07-18T05:45:02Z</time>
      </trkpt>
      <trkpt lat="50.11048" lon="3.64703">
        <ele>136.64</ele>
        <time>2015-07-18T05:45:03Z</time>
      </trkpt>
      <trkpt lat="50.11028" lon="3.64682">
        <ele>136.64</ele>
        <time>2015-07-18T05:45:07Z</time>
      </trkpt>
      <trkpt lat="50.10934" lon="3.64601">
        <ele>136.64</ele>
        <time>2015-07-18T05:45:24Z</time>
      </trkpt>
      <trkpt lat="50.10843" lon="3.64522">
        <ele>136.64</ele>
        <time>2015-07-18T05:45:42Z</time>
      </trkpt>
      <trkpt lat="50.10747" lon="3.64441">
        <ele>137.61</ele>
        <time>2015-07-18T05:46:02Z</time>
      </trkpt>
      <trkpt lat="50.10671" lon="3.64375">
        <ele>137.61</ele>
        <time>2015-07-18T05:46:18Z</time>
      </trkpt>
      <trkpt lat="50.10587" lon="3.64301">
        <ele>137.61</ele>
        <time>2015-07-18T05:46:35Z</time>
      </trkpt>
      <trkpt lat="50.105" lon="3.64202">
        <ele>138.09</ele>
        <time>2015-07-18T05:46:54Z</time>
      </trkpt>
      <trkpt lat="50.10417" lon="3.641">
        <ele>138.09</ele>
        <time>2015-07-18T05:47:13Z</time>
      </trkpt>
      <trkpt lat="50.10337" lon="3.64001">
        <ele>138.09</ele>
        <time>2015-07-18T05:47:32Z</time>
      </trkpt>
      <trkpt lat="50.10259" lon="3.63906">
        <ele>138.09</ele>
        <time>2015-07-18T05:47:49Z</time>
      </trkpt>
      <trkpt lat="50.10191" lon="3.63823">
        <ele>138.09</ele>
        <time>2015-07-18T05:48:04Z</time>
      </trkpt>
      <trkpt lat="50.1012" lon="3.63735">
        <ele>138.09</ele>
        <time>2015-07-18T05:48:21Z</time>
      </trkpt>
      <trkpt lat="50.1004" lon="3.6364">
        <ele>138.57</ele>
        <time>2015-07-18T05:48:40Z</time>
      </trkpt>
      <trkpt lat="50.09965" lon="3.63551">
        <ele>138.57</ele>
        <time>2015-07-18T05:48:57Z</time>
      </trkpt>
      <trkpt lat="50.09943" lon="3.6353">
        <ele>141.45</ele>
        <time>2015-07-18T05:49:05Z</time>
      </trkpt>
      <trkpt lat="50.09942" lon="3.63529">
        <ele>141.45</ele>
        <time>2015-07-18T05:49:06Z</time>
      </trkpt>
      <trkpt lat="50.0994" lon="3.63529">
        <ele>141.45</ele>
        <time>2015-07-18T05:49:07Z</time>
      </trkpt>
      <trkpt lat="50.09937" lon="3.63529">
        <ele>141.93</ele>
        <time>2015-07-18T05:49:10Z</time>
      </trkpt>
      <trkpt lat="50.09935" lon="3.63527">
        <ele>141.93</ele>
        <time>2015-07-18T05:49:11Z</time>
      </trkpt>
      <trkpt lat="50.09934" lon="3.63525">
        <ele>141.93</ele>
        <time>2015-07-18T05:49:12Z</time>
      </trkpt>
      <trkpt lat="50.09922" lon="3.63513">
        <ele>140.01</ele>
        <time>2015-07-18T05:49:15Z</time>
      </trkpt>
      <trkpt lat="50.09918" lon="3.63508">
        <ele>139.53</ele>
        <time>2015-07-18T05:49:16Z</time>
      </trkpt>
      <trkpt lat="50.09914" lon="3.63502">
        <ele>139.53</ele>
        <time>2015-07-18T05:49:17Z</time>
      </trkpt>
      <trkpt lat="50.09892" lon="3.63469">
        <ele>139.53</ele>
        <time>2015-07-18T05:49:23Z</time>
      </trkpt>
      <trkpt lat="50.09888" lon="3.63465">
        <ele>139.53</ele>
        <time>2015-07-18T05:49:24Z</time>
      </trkpt>
      <trkpt lat="50.09873" lon="3.63445">
        <ele>139.53</ele>
        <time>2015-07-18T05:49:28Z</time>
      </trkpt>
      <trkpt lat="50.09869" lon="3.6344">
        <ele>139.53</ele>
        <time>2015-07-18T05:49:29Z</time>
      </trkpt>
      <trkpt lat="50.09865" lon="3.63436">
        <ele>139.53</ele>
        <time>2015-07-18T05:49:30Z</time>
      </trkpt>
      <trkpt lat="50.09861" lon="3.63431">
        <ele>139.53</ele>
        <time>2015-07-18T05:49:31Z</time>
      </trkpt>
      <trkpt lat="50.09857" lon="3.63427">
        <ele>139.53</ele>
        <time>2015-07-18T05:49:32Z</time>
      </trkpt>
      <trkpt lat="50.09853" lon="3.63423">
        <ele>139.53</ele>
        <time>2015-07-18T05:49:33Z</time>
      </trkpt>
      <trkpt lat="50.09775" lon="3.63357">
        <ele>139.53</ele>
        <time>2015-07-18T05:49:50Z</time>
      </trkpt>
      <trkpt lat="50.09686" lon="3.63316">
        <ele>139.53</ele>
        <time>2015-07-18T05:50:08Z</time>
      </trkpt>
      <trkpt lat="50.09651" lon="3.63305">
        <ele>139.53</ele>
        <time>2015-07-18T05:50:15Z</time>
      </trkpt>
      <trkpt lat="50.09621" lon="3.63298">
        <ele>139.53</ele>
        <time>2015-07-18T05:50:21Z</time>
      </trkpt>
      <trkpt lat="50.09616" lon="3.63297">
        <ele>139.53</ele>
        <time>2015-07-18T05:50:22Z</time>
      </trkpt>
      <trkpt lat="50.0961" lon="3.63296">
        <ele>139.53</ele>
        <time>2015-07-18T05:50:23Z</time>
      </trkpt>
      <trkpt lat="50.09526" lon="3.63272">
        <ele>139.53</ele>
        <time>2015-07-18T05:50:40Z</time>
      </trkpt>
      <trkpt lat="50.09419" lon="3.63242">
        <ele>139.53</ele>
        <time>2015-07-18T05:51:01Z</time>
      </trkpt>
      <trkpt lat="50.09328" lon="3.63227">
        <ele>139.53</ele>
        <time>2015-07-18T05:51:19Z</time>
      </trkpt>
      <trkpt lat="50.0932" lon="3.63227">
        <ele>139.53</ele>
        <time>2015-07-18T05:51:21Z</time>
      </trkpt>
      <trkpt lat="50.09315" lon="3.63227">
        <ele>139.53</ele>
        <time>2015-07-18T05:51:22Z</time>
      </trkpt>
      <trkpt lat="50.09259" lon="3.63235">
        <ele>139.53</ele>
        <time>2015-07-18T05:51:34Z</time>
      </trkpt>
      <trkpt lat="50.09218" lon="3.63247">
        <ele>139.53</ele>
        <time>2015-07-18T05:51:43Z</time>
      </trkpt>
      <trkpt lat="50.09201" lon="3.63255">
        <ele>139.53</ele>
        <time>2015-07-18T05:51:47Z</time>
      </trkpt>
      <trkpt lat="50.09196" lon="3.63257">
        <ele>139.53</ele>
        <time>2015-07-18T05:51:48Z</time>
      </trkpt>
      <trkpt lat="50.09191" lon="3.63259">
        <ele>139.53</ele>
        <time>2015-07-18T05:51:49Z</time>
      </trkpt>
      <trkpt lat="50.09187" lon="3.63261">
        <ele>139.53</ele>
        <time>2015-07-18T05:51:50Z</time>
      </trkpt>
      <trkpt lat="50.09182" lon="3.63264">
        <ele>139.53</ele>
        <time>2015-07-18T05:51:51Z</time>
      </trkpt>
      <trkpt lat="50.09178" lon="3.63266">
        <ele>139.53</ele>
        <time>2015-07-18T05:51:52Z</time>
      </trkpt>
      <trkpt lat="50.09097" lon="3.63316">
        <ele>139.53</ele>
        <time>2015-07-18T05:52:10Z</time>
      </trkpt>
      <trkpt lat="50.09012" lon="3.63371">
        <ele>139.53</ele>
        <time>2015-07-18T05:52:29Z</time>
      </trkpt>
      <trkpt lat="50.08989" lon="3.63385">
        <ele>139.53</ele>
        <time>2015-07-18T05:52:34Z</time>
      </trkpt>
      <trkpt lat="50.0891" lon="3.63437">
        <ele>139.53</ele>
        <time>2015-07-18T05:52:51Z</time>
      </trkpt>
      <trkpt lat="50.08905" lon="3.6344">
        <ele>139.53</ele>
        <time>2015-07-18T05:52:52Z</time>
      </trkpt>
      <trkpt lat="50.08901" lon="3.63442">
        <ele>139.53</ele>
        <time>2015-07-18T05:52:53Z</time>
      </trkpt>
      <trkpt lat="50.08825" lon="3.63491">
        <ele>139.53</ele>
        <time>2015-07-18T05:53:09Z</time>
      </trkpt>
      <trkpt lat="50.08745" lon="3.63544">
        <ele>139.53</ele>
        <time>2015-07-18T05:53:27Z</time>
      </trkpt>
      <trkpt lat="50.08651" lon="3.63603">
        <ele>139.53</ele>
        <time>2015-07-18T05:53:47Z</time>
      </trkpt>
      <trkpt lat="50.08564" lon="3.63657">
        <ele>139.53</ele>
        <time>2015-07-18T05:54:04Z</time>
      </trkpt>
      <trkpt lat="50.08479" lon="3.63713">
        <ele>139.53</ele>
        <time>2015-07-18T05:54:21Z</time>
      </trkpt>
      <trkpt lat="50.08403" lon="3.63763">
        <ele>139.53</ele>
        <time>2015-07-18T05:54:37Z</time>
      </trkpt>
      <trkpt lat="50.08307" lon="3.63826">
        <ele>139.53</ele>
        <time>2015-07-18T05:54:57Z</time>
      </trkpt>
      <trkpt lat="50.08269" lon="3.6385">
        <ele>139.53</ele>
        <time>2015-07-18T05:55:05Z</time>
      </trkpt>
      <trkpt lat="50.082" lon="3.63896">
        <ele>139.53</ele>
        <time>2015-07-18T05:55:20Z</time>
      </trkpt>
      <trkpt lat="50.08143" lon="3.63941">
        <ele>139.53</ele>
        <time>2015-07-18T05:55:33Z</time>
      </trkpt>
      <trkpt lat="50.08139" lon="3.63945">
        <ele>139.53</ele>
        <time>2015-07-18T05:55:34Z</time>
      </trkpt>
      <trkpt lat="50.08082" lon="3.64004">
        <ele>139.53</ele>
        <time>2015-07-18T05:55:48Z</time>
      </trkpt>
      <trkpt lat="50.08078" lon="3.64008">
        <ele>139.53</ele>
        <time>2015-07-18T05:55:49Z</time>
      </trkpt>
      <trkpt lat="50.08074" lon="3.64013">
        <ele>139.53</ele>
        <time>2015-07-18T05:55:50Z</time>
      </trkpt>
      <trkpt lat="50.08036" lon="3.64062">
        <ele>140.97</ele>
        <time>2015-07-18T05:56:01Z</time>
      </trkpt>
      <trkpt lat="50.07983" lon="3.6413">
        <ele>140.97</ele>
        <time>2015-07-18T05:56:16Z</time>
      </trkpt>
      <trkpt lat="50.07933" lon="3.64192">
        <ele>140.97</ele>
        <time>2015-07-18T05:56:28Z</time>
      </trkpt>
      <trkpt lat="50.07869" lon="3.64273">
        <ele>141.45</ele>
        <time>2015-07-18T05:56:44Z</time>
      </trkpt>
      <trkpt lat="50.07794" lon="3.64364">
        <ele>141.45</ele>
        <time>2015-07-18T05:57:04Z</time>
      </trkpt>
      <trkpt lat="50.07775" lon="3.64386">
        <ele>140.97</ele>
        <time>2015-07-18T05:57:13Z</time>
      </trkpt>
      <trkpt lat="50.07774" lon="3.64388">
        <ele>140.97</ele>
        <time>2015-07-18T05:57:14Z</time>
      </trkpt>
      <trkpt lat="50.07772" lon="3.64391">
        <ele>140.97</ele>
        <time>2015-07-18T05:57:15Z</time>
      </trkpt>
      <trkpt lat="50.0777" lon="3.64394">
        <ele>140.97</ele>
        <time>2015-07-18T05:57:16Z</time>
      </trkpt>
      <trkpt lat="50.07768" lon="3.64397">
        <ele>140.97</ele>
        <time>2015-07-18T05:57:17Z</time>
      </trkpt>
      <trkpt lat="50.07762" lon="3.64405">
        <ele>141.45</ele>
        <time>2015-07-18T05:57:19Z</time>
      </trkpt>
      <trkpt lat="50.07716" lon="3.64456">
        <ele>140.97</ele>
        <time>2015-07-18T05:57:32Z</time>
      </trkpt>
      <trkpt lat="50.07713" lon="3.64461">
        <ele>141.45</ele>
        <time>2015-07-18T05:57:33Z</time>
      </trkpt>
      <trkpt lat="50.07708" lon="3.64472">
        <ele>141.45</ele>
        <time>2015-07-18T05:57:35Z</time>
      </trkpt>
      <trkpt lat="50.07705" lon="3.64477">
        <ele>140.97</ele>
        <time>2015-07-18T05:57:36Z</time>
      </trkpt>
      <trkpt lat="50.07698" lon="3.64486">
        <ele>141.45</ele>
        <time>2015-07-18T05:57:38Z</time>
      </trkpt>
      <trkpt lat="50.0765" lon="3.64547">
        <ele>141.45</ele>
        <time>2015-07-18T05:57:52Z</time>
      </trkpt>
      <trkpt lat="50.07643" lon="3.64556">
        <ele>141.45</ele>
        <time>2015-07-18T05:57:54Z</time>
      </trkpt>
      <trkpt lat="50.07623" lon="3.64583">
        <ele>141.45</ele>
        <time>2015-07-18T05:58:03Z</time>
      </trkpt>
      <trkpt lat="50.07623" lon="3.64587">
        <ele>141.45</ele>
        <time>2015-07-18T05:58:04Z</time>
      </trkpt>
      <trkpt lat="50.07626" lon="3.64597">
        <ele>141.45</ele>
        <time>2015-07-18T05:58:06Z</time>
      </trkpt>
      <trkpt lat="50.07653" lon="3.64673">
        <ele>141.45</ele>
        <time>2015-07-18T05:58:19Z</time>
      </trkpt>
      <trkpt lat="50.07655" lon="3.64692">
        <ele>141.45</ele>
        <time>2015-07-18T05:58:22Z</time>
      </trkpt>
      <trkpt lat="50.07656" lon="3.64699">
        <ele>141.45</ele>
        <time>2015-07-18T05:58:23Z</time>
      </trkpt>
      <trkpt lat="50.07657" lon="3.64705">
        <ele>141.45</ele>
        <time>2015-07-18T05:58:24Z</time>
      </trkpt>
      <trkpt lat="50.07658" lon="3.64711">
        <ele>141.45</ele>
        <time>2015-07-18T05:58:25Z</time>
      </trkpt>
      <trkpt lat="50.07658" lon="3.64717">
        <ele>141.45</ele>
        <time>2015-07-18T05:58:26Z</time>
      </trkpt>
      <trkpt lat="50.07658" lon="3.64723">
        <ele>141.45</ele>
        <time>2015-07-18T05:58:27Z</time>
      </trkpt>
      <trkpt lat="50.07659" lon="3.64728">
        <ele>141.45</ele>
        <time>2015-07-18T05:58:28Z</time>
      </trkpt>
      <trkpt lat="50.07658" lon="3.64734">
        <ele>141.45</ele>
        <time>2015-07-18T05:58:29Z</time>
      </trkpt>
      <trkpt lat="50.07658" lon="3.6474">
        <ele>141.45</ele>
        <time>2015-07-18T05:58:30Z</time>
      </trkpt>
      <trkpt lat="50.07653" lon="3.64773">
        <ele>140.49</ele>
        <time>2015-07-18T05:58:41Z</time>
      </trkpt>
      <trkpt lat="50.07654" lon="3.64774">
        <ele>140.49</ele>
        <time>2015-07-18T05:59:05Z</time>
      </trkpt>
    </trkseg>
  </trk>
</gpx>